sensor_id;sensor_type;location;lat;lon;timestamp;pressure;altitude;pressure_sealevel;temperature;humidity
48204;BME280;33994;50.998;5.864;2023-02-28T00:02:58;102462.72;;;-0.37;73.59
48204;BME280;33994;50.998;5.864;2023-02-28T00:06:02;102468.66;;;-0.38;73.73
48204;BME280;33994;50.998;5.864;2023-02-28T00:09:05;102463.34;;;-0.41;73.95
48204;BME280;33994;50.998;5.864;2023-02-28T00:12:10;102461.56;;;-0.42;73.95
48204;BME280;33994;50.998;5.864;2023-02-28T00:15:13;102458.09;;;-0.43;73.67
48204;BME280;33994;50.998;5.864;2023-02-28T00:18:16;102457.94;;;-0.46;74.15
48204;BME280;33994;50.998;5.864;2023-02-28T00:21:20;102451.81;;;-0.48;74.28
48204;BME280;33994;50.998;5.864;2023-02-28T00:24:23;102457.06;;;-0.46;74.08
48204;BME280;33994;50.998;5.864;2023-02-28T00:27:28;102463.97;;;-0.45;74.13
48204;BME280;33994;50.998;5.864;2023-02-28T00:30:31;102451.81;;;-0.48;74.26
48204;BME280;33994;50.998;5.864;2023-02-28T00:33:34;102463.88;;;-0.47;74.62
48204;BME280;33994;50.998;5.864;2023-02-28T00:36:37;102456.97;;;-0.48;74.62
48204;BME280;33994;50.998;5.864;2023-02-28T00:39:40;102462.09;;;-0.48;74.85
48204;BME280;33994;50.998;5.864;2023-02-28T00:42:45;102465.47;;;-0.49;74.71
48204;BME280;33994;50.998;5.864;2023-02-28T00:45:47;102464.41;;;-0.53;74.95
48204;BME280;33994;50.998;5.864;2023-02-28T00:48:51;102470.44;;;-0.52;74.89
48204;BME280;33994;50.998;5.864;2023-02-28T00:51:54;102473.81;;;-0.53;74.90
48204;BME280;33994;50.998;5.864;2023-02-28T00:54:57;102468.69;;;-0.53;74.99
48204;BME280;33994;50.998;5.864;2023-02-28T00:58:02;102472.81;;;-0.55;74.38
48204;BME280;33994;50.998;5.864;2023-02-28T01:01:05;102472.81;;;-0.55;74.87
48204;BME280;33994;50.998;5.864;2023-02-28T01:04:08;102471.88;;;-0.57;75.11
48204;BME280;33994;50.998;5.864;2023-02-28T01:07:11;102474.25;;;-0.60;74.59
48204;BME280;33994;50.998;5.864;2023-02-28T01:10:15;102477.78;;;-0.58;75.24
48204;BME280;33994;50.998;5.864;2023-02-28T01:13:20;102479.47;;;-0.59;74.80
48204;BME280;33994;50.998;5.864;2023-02-28T01:16:23;102479.59;;;-0.57;75.06
48204;BME280;33994;50.998;5.864;2023-02-28T01:19:27;102481.34;;;-0.56;74.83
48204;BME280;33994;50.998;5.864;2023-02-28T01:22:30;102483.13;;;-0.55;74.42
48204;BME280;33994;50.998;5.864;2023-02-28T01:25:34;102484.81;;;-0.56;74.70
48204;BME280;33994;50.998;5.864;2023-02-28T01:28:39;102478.59;;;-0.59;75.22
48204;BME280;33994;50.998;5.864;2023-02-28T01:31:42;102478.59;;;-0.59;75.09
48204;BME280;33994;50.998;5.864;2023-02-28T01:34:45;102475.06;;;-0.61;74.82
48204;BME280;33994;50.998;5.864;2023-02-28T01:37:48;102480.22;;;-0.61;74.82
48204;BME280;33994;50.998;5.864;2023-02-28T01:40:52;102465.50;;;-0.64;75.18
48204;BME280;33994;50.998;5.864;2023-02-28T01:43:59;102468.69;;;-0.68;75.06
48204;BME280;33994;50.998;5.864;2023-02-28T01:47:03;102467.88;;;-0.67;75.06
48204;BME280;33994;50.998;5.864;2023-02-28T01:50:09;102467.81;;;-0.68;75.15
48204;BME280;33994;50.998;5.864;2023-02-28T01:53:15;102468.44;;;-0.72;76.17
48204;BME280;33994;50.998;5.864;2023-02-28T01:56:23;102457.78;;;-0.79;75.83
48204;BME280;33994;50.998;5.864;2023-02-28T01:59:31;102451.78;;;-0.79;75.80
48204;BME280;33994;50.998;5.864;2023-02-28T02:02:36;102458.69;;;-0.78;76.01
48204;BME280;33994;50.998;5.864;2023-02-28T02:05:41;102454.41;;;-0.78;75.87
48204;BME280;33994;50.998;5.864;2023-02-28T02:08:44;102451.69;;;-0.81;75.86
48204;BME280;33994;50.998;5.864;2023-02-28T02:11:47;102454.09;;;-0.84;75.71
48204;BME280;33994;50.998;5.864;2023-02-28T02:15:01;102451.34;;;-0.87;76.26
48204;BME280;33994;50.998;5.864;2023-02-28T02:18:16;102441.94;;;-0.86;75.97
48204;BME280;33994;50.998;5.864;2023-02-28T02:21:57;102446.91;;;-0.89;76.17
48204;BME280;33994;50.998;5.864;2023-02-28T02:25:24;102438.06;;;-0.94;76.51
48204;BME280;33994;50.998;5.864;2023-02-28T02:32:19;102434.34;;;-0.99;76.37
48204;BME280;33994;50.998;5.864;2023-02-28T02:35:35;102436.91;;;-0.99;76.80
48204;BME280;33994;50.998;5.864;2023-02-28T02:38:48;102429.28;;;-0.98;76.51
48204;BME280;33994;50.998;5.864;2023-02-28T02:41:54;102437.00;;;-0.98;76.88
48204;BME280;33994;50.998;5.864;2023-02-28T02:45:01;102434.34;;;-0.99;76.21
48204;BME280;33994;50.998;5.864;2023-02-28T02:48:11;102418.94;;;-0.99;76.66
48204;BME280;33994;50.998;5.864;2023-02-28T02:51:17;102428.31;;;-1.00;76.98
48204;BME280;33994;50.998;5.864;2023-02-28T02:54:25;102431.66;;;-1.01;76.81
48204;BME280;33994;50.998;5.864;2023-02-28T02:57:34;102436.03;;;-1.00;76.64
48204;BME280;33994;50.998;5.864;2023-02-28T03:00:42;102435.22;;;-0.99;76.79
48204;BME280;33994;50.998;5.864;2023-02-28T03:03:48;102437.59;;;-1.02;76.89
48204;BME280;33994;50.998;5.864;2023-02-28T03:06:52;102440.69;;;-1.08;76.62
48204;BME280;33994;50.998;5.864;2023-02-28T03:09:57;102437.59;;;-1.17;77.16
48204;BME280;33994;50.998;5.864;2023-02-28T03:13:11;102435.47;;;-1.24;77.13
48204;BME280;33994;50.998;5.864;2023-02-28T03:16:28;102442.72;;;-1.32;77.91
48204;BME280;33994;50.998;5.864;2023-02-28T03:19:51;102429.88;;;-1.32;78.07
48204;BME280;33994;50.998;5.864;2023-02-28T03:23:04;102437.50;;;-1.33;78.47
48204;BME280;33994;50.998;5.864;2023-02-28T03:26:16;102433.06;;;-1.36;78.17
48204;BME280;33994;50.998;5.864;2023-02-28T03:29:28;102430.59;;;-1.34;78.29
48204;BME280;33994;50.998;5.864;2023-02-28T03:32:39;102435.44;;;-1.39;78.45
48204;BME280;33994;50.998;5.864;2023-02-28T03:35:49;102442.19;;;-1.41;78.40
48204;BME280;33994;50.998;5.864;2023-02-28T03:38:58;102443.16;;;-1.39;78.88
48204;BME280;33994;50.998;5.864;2023-02-28T03:42:06;102438.75;;;-1.41;78.93
48204;BME280;33994;50.998;5.864;2023-02-28T03:45:14;102449.09;;;-1.40;79.02
48204;BME280;33994;50.998;5.864;2023-02-28T03:48:21;102444.94;;;-1.38;79.33
48204;BME280;33994;50.998;5.864;2023-02-28T03:51:27;102445.72;;;-1.39;79.17
48204;BME280;33994;50.998;5.864;2023-02-28T03:54:35;102444.94;;;-1.38;79.14
48204;BME280;33994;50.998;5.864;2023-02-28T03:57:44;102442.06;;;-1.42;79.51
48204;BME280;33994;50.998;5.864;2023-02-28T04:00:58;102437.66;;;-1.45;79.33
48204;BME280;33994;50.998;5.864;2023-02-28T04:04:03;102439.44;;;-1.44;79.44
48204;BME280;33994;50.998;5.864;2023-02-28T04:07:08;102438.56;;;-1.44;79.50
48204;BME280;33994;50.998;5.864;2023-02-28T04:10:13;102441.00;;;-1.46;79.84
48204;BME280;33994;50.998;5.864;2023-02-28T04:13:17;102440.13;;;-1.46;79.55
48204;BME280;33994;50.998;5.864;2023-02-28T04:16:20;102437.47;;;-1.48;80.00
48204;BME280;33994;50.998;5.864;2023-02-28T04:19:23;102439.97;;;-1.50;79.86
48204;BME280;33994;50.998;5.864;2023-02-28T04:22:26;102441.00;;;-1.46;79.94
48204;BME280;33994;50.998;5.864;2023-02-28T04:25:31;102445.09;;;-1.50;80.00
48204;BME280;33994;50.998;5.864;2023-02-28T04:28:36;102439.66;;;-1.54;80.06
48204;BME280;33994;50.998;5.864;2023-02-28T04:31:39;102444.91;;;-1.53;79.91
48204;BME280;33994;50.998;5.864;2023-02-28T04:34:43;102442.97;;;-1.57;79.84
48204;BME280;33994;50.998;5.864;2023-02-28T04:37:46;102444.53;;;-1.59;79.90
48204;BME280;33994;50.998;5.864;2023-02-28T04:40:51;102445.34;;;-1.60;80.11
48204;BME280;33994;50.998;5.864;2023-02-28T04:43:54;102446.22;;;-1.59;79.94
48204;BME280;33994;50.998;5.864;2023-02-28T04:46:57;102447.00;;;-1.60;80.06
48204;BME280;33994;50.998;5.864;2023-02-28T04:50:00;102444.19;;;-1.65;79.79
48204;BME280;33994;50.998;5.864;2023-02-28T04:53:03;102446.44;;;-1.69;80.35
48204;BME280;33994;50.998;5.864;2023-02-28T04:56:09;102452.28;;;-1.72;79.92
48204;BME280;33994;50.998;5.864;2023-02-28T04:59:14;102442.53;;;-1.78;80.09
48204;BME280;33994;50.998;5.864;2023-02-28T05:02:17;102445.69;;;-1.82;80.06
48204;BME280;33994;50.998;5.864;2023-02-28T05:05:20;102457.56;;;-1.84;80.27
48204;BME280;33994;50.998;5.864;2023-02-28T05:08:23;102458.44;;;-1.83;80.23
48204;BME280;33994;50.998;5.864;2023-02-28T05:11:29;102460.69;;;-1.88;80.22
48204;BME280;33994;50.998;5.864;2023-02-28T05:14:32;102461.63;;;-1.87;80.63
48204;BME280;33994;50.998;5.864;2023-02-28T05:17:35;102464.94;;;-1.88;80.59
48204;BME280;33994;50.998;5.864;2023-02-28T05:20:39;102465.13;;;-1.85;80.63
48204;BME280;33994;50.998;5.864;2023-02-28T05:23:42;102460.00;;;-1.85;80.45
48204;BME280;33994;50.998;5.864;2023-02-28T05:26:46;102466.91;;;-1.84;80.81
48204;BME280;33994;50.998;5.864;2023-02-28T05:29:50;102460.00;;;-1.85;80.76
48204;BME280;33994;50.998;5.864;2023-02-28T05:32:53;102459.81;;;-1.88;80.81
48204;BME280;33994;50.998;5.864;2023-02-28T05:35:56;102455.22;;;-1.94;81.06
48204;BME280;33994;50.998;5.864;2023-02-28T05:38:59;102461.75;;;-1.99;81.13
48204;BME280;33994;50.998;5.864;2023-02-28T05:42:04;102465.88;;;-2.01;81.19
48204;BME280;33994;50.998;5.864;2023-02-28T05:45:09;102463.13;;;-2.04;81.10
48204;BME280;33994;50.998;5.864;2023-02-28T05:48:12;102466.41;;;-2.07;80.93
48204;BME280;33994;50.998;5.864;2023-02-28T05:51:16;102463.72;;;-2.08;81.15
48204;BME280;33994;50.998;5.864;2023-02-28T05:54:19;102469.66;;;-2.09;80.99
48204;BME280;33994;50.998;5.864;2023-02-28T05:57:24;102473.16;;;-2.07;81.02
48204;BME280;33994;50.998;5.864;2023-02-28T06:00:26;102471.59;;;-2.05;80.77
48204;BME280;33994;50.998;5.864;2023-02-28T06:03:30;102469.84;;;-2.06;80.50
48204;BME280;33994;50.998;5.864;2023-02-28T06:06:33;102467.16;;;-2.08;80.11
48204;BME280;33994;50.998;5.864;2023-02-28T06:09:36;102461.16;;;-2.08;80.11
48204;BME280;33994;50.998;5.864;2023-02-28T06:12:41;102469.72;;;-2.08;79.95
48204;BME280;33994;50.998;5.864;2023-02-28T06:15:44;102476.53;;;-2.08;79.71
48204;BME280;33994;50.998;5.864;2023-02-28T06:18:48;102474.97;;;-2.06;79.63
48204;BME280;33994;50.998;5.864;2023-02-28T06:21:51;102480.88;;;-2.07;79.65
48204;BME280;33994;50.998;5.864;2023-02-28T06:24:54;102487.59;;;-2.09;79.50
48204;BME280;33994;50.998;5.864;2023-02-28T06:27:58;102483.16;;;-2.12;79.62
48204;BME280;33994;50.998;5.864;2023-02-28T06:31:06;102489.00;;;-2.14;79.37
48204;BME280;33994;50.998;5.864;2023-02-28T06:34:10;102482.88;;;-2.16;79.06
48204;BME280;33994;50.998;5.864;2023-02-28T06:37:13;102484.63;;;-2.15;79.27
48204;BME280;33994;50.998;5.864;2023-02-28T06:40:16;102487.47;;;-2.11;78.91
48204;BME280;33994;50.998;5.864;2023-02-28T06:43:21;102488.38;;;-2.10;78.61
48204;BME280;33994;50.998;5.864;2023-02-28T06:46:24;102485.22;;;-2.06;78.60
48204;BME280;33994;50.998;5.864;2023-02-28T06:49:28;102496.03;;;-1.97;78.15
48204;BME280;33994;50.998;5.864;2023-02-28T06:52:31;102499.97;;;-1.89;77.73
48204;BME280;33994;50.998;5.864;2023-02-28T06:55:34;102500.16;;;-1.86;77.25
48204;BME280;33994;50.998;5.864;2023-02-28T06:58:39;102505.50;;;-1.83;77.02
48204;BME280;33994;50.998;5.864;2023-02-28T07:01:43;102509.81;;;-1.82;76.55
48204;BME280;33994;50.998;5.864;2023-02-28T07:04:46;102517.72;;;-1.79;76.76
48204;BME280;33994;50.998;5.864;2023-02-28T07:07:49;102522.25;;;-1.75;76.36
48204;BME280;33994;50.998;5.864;2023-02-28T07:10:52;102523.59;;;-1.66;76.13
48204;BME280;33994;50.998;5.864;2023-02-28T07:13:57;102524.94;;;-1.58;76.00
48204;BME280;33994;50.998;5.864;2023-02-28T07:17:00;102537.47;;;-1.50;75.86
48204;BME280;33994;50.998;5.864;2023-02-28T07:20:04;102535.53;;;-1.39;75.62
48204;BME280;33994;50.998;5.864;2023-02-28T07:23:07;102524.97;;;-1.30;75.25
48204;BME280;33994;50.998;5.864;2023-02-28T07:26:12;102532.34;;;-1.21;75.18
48204;BME280;33994;50.998;5.864;2023-02-28T07:29:17;102528.97;;;-1.20;75.24
48204;BME280;33994;50.998;5.864;2023-02-28T07:32:20;102532.34;;;-1.21;75.03
48204;BME280;33994;50.998;5.864;2023-02-28T07:35:23;102536.59;;;-1.22;75.06
48204;BME280;33994;50.998;5.864;2023-02-28T07:38:26;102535.09;;;-1.18;75.12
48204;BME280;33994;50.998;5.864;2023-02-28T07:41:30;102535.38;;;-1.14;75.27
48204;BME280;33994;50.998;5.864;2023-02-28T07:44:34;102531.38;;;-1.09;74.75
48204;BME280;33994;50.998;5.864;2023-02-28T07:47:38;102528.72;;;-1.10;74.41
48204;BME280;33994;50.998;5.864;2023-02-28T07:50:41;102536.69;;;-1.06;74.54
48204;BME280;33994;50.998;5.864;2023-02-28T07:53:45;102529.25;;;-1.01;74.07
48204;BME280;33994;50.998;5.864;2023-02-28T07:56:48;102529.44;;;-0.98;74.12
48204;BME280;33994;50.998;5.864;2023-02-28T07:59:52;102534.59;;;-0.98;73.70
48204;BME280;33994;50.998;5.864;2023-02-28T08:02:56;102533.91;;;-0.95;73.30
48204;BME280;33994;50.998;5.864;2023-02-28T08:05:59;102529.28;;;-0.86;72.92
48204;BME280;33994;50.998;5.864;2023-02-28T08:09:02;102537.44;;;-0.79;72.89
48204;BME280;33994;50.998;5.864;2023-02-28T08:12:06;102538.88;;;-0.69;72.63
48204;BME280;33994;50.998;5.864;2023-02-28T08:15:11;102545.09;;;-0.65;72.07
48204;BME280;33994;50.998;5.864;2023-02-28T08:18:14;102537.09;;;-0.55;71.43
48204;BME280;33994;50.998;5.864;2023-02-28T08:21:17;102542.94;;;-0.43;71.35
48204;BME280;33994;50.998;5.864;2023-02-28T08:24:21;102540.53;;;-0.40;70.81
48204;BME280;33994;50.998;5.864;2023-02-28T08:27:24;102542.47;;;-0.36;69.85
48204;BME280;33994;50.998;5.864;2023-02-28T08:30:28;102547.00;;;-0.32;68.98
48204;BME280;33994;50.998;5.864;2023-02-28T08:33:31;102537.63;;;-0.31;68.27
48204;BME280;33994;50.998;5.864;2023-02-28T08:36:35;102544.84;;;-0.24;67.84
48204;BME280;33994;50.998;5.864;2023-02-28T08:39:38;102548.59;;;-0.19;67.94
48204;BME280;33994;50.998;5.864;2023-02-28T08:42:42;102543.53;;;-0.17;66.60
48204;BME280;33994;50.998;5.864;2023-02-28T08:45:46;102544.69;;;-0.12;67.53
48204;BME280;33994;50.998;5.864;2023-02-28T08:48:52;102548.41;;;-0.07;67.01
48204;BME280;33994;50.998;5.864;2023-02-28T08:51:55;102542.69;;;-0.02;66.56
48204;BME280;33994;50.998;5.864;2023-02-28T08:54:58;102534.44;;;0.04;66.00
48204;BME280;33994;50.998;5.864;2023-02-28T08:58:01;102540.00;;;0.12;65.51
48204;BME280;33994;50.998;5.864;2023-02-28T09:01:10;102535.09;;;0.16;64.36
48204;BME280;33994;50.998;5.864;2023-02-28T09:04:13;102543.94;;;0.21;64.25
48204;BME280;33994;50.998;5.864;2023-02-28T09:07:16;102536.41;;;0.25;63.33
48204;BME280;33994;50.998;5.864;2023-02-28T09:10:19;102546.81;;;0.26;62.33
48204;BME280;33994;50.998;5.864;2023-02-28T09:13:22;102544.53;;;0.32;61.25
48204;BME280;33994;50.998;5.864;2023-02-28T09:16:26;102529.28;;;0.35;60.20
48204;BME280;33994;50.998;5.864;2023-02-28T09:19:29;102533.06;;;0.42;59.87
48204;BME280;33994;50.998;5.864;2023-02-28T09:22:33;102523.88;;;0.47;58.08
48204;BME280;33994;50.998;5.864;2023-02-28T09:25:36;102537.09;;;0.53;58.33
48204;BME280;33994;50.998;5.864;2023-02-28T09:28:40;102524.47;;;0.58;57.09
48204;BME280;33994;50.998;5.864;2023-02-28T09:31:45;102523.75;;;0.60;56.28
48204;BME280;33994;50.998;5.864;2023-02-28T09:34:48;102518.91;;;0.66;56.91
48204;BME280;33994;50.998;5.864;2023-02-28T09:37:51;102526.16;;;0.74;56.29
48204;BME280;33994;50.998;5.864;2023-02-28T09:40:56;102510.75;;;0.75;54.51
48204;BME280;33994;50.998;5.864;2023-02-28T09:44:02;102520.34;;;0.78;53.71
48204;BME280;33994;50.998;5.864;2023-02-28T09:47:13;102513.59;;;0.80;53.21
48204;BME280;33994;50.998;5.864;2023-02-28T09:50:22;102510.38;;;0.84;53.73
48204;BME280;33994;50.998;5.864;2023-02-28T09:53:33;102503.09;;;0.93;53.27
48204;BME280;33994;50.998;5.864;2023-02-28T09:56:39;102511.88;;;0.97;52.23
48204;BME280;33994;50.998;5.864;2023-02-28T10:00:00;102510.13;;;0.95;50.61
48204;BME280;33994;50.998;5.864;2023-02-28T10:03:21;102507.63;;;0.97;50.46
48204;BME280;33994;50.998;5.864;2023-02-28T10:06:29;102503.34;;;0.98;50.10
48204;BME280;33994;50.998;5.864;2023-02-28T10:09:33;102514.78;;;1.03;50.03
48204;BME280;33994;50.998;5.864;2023-02-28T10:12:41;102507.94;;;1.03;48.53
48204;BME280;33994;50.998;5.864;2023-02-28T10:15:51;102514.13;;;1.07;48.97
48204;BME280;33994;50.998;5.864;2023-02-28T10:18:57;102511.78;;;1.11;47.06
48204;BME280;33994;50.998;5.864;2023-02-28T10:22:05;102509.44;;;1.16;47.56
48204;BME280;33994;50.998;5.864;2023-02-28T10:25:17;102506.13;;;1.18;47.30
48204;BME280;33994;50.998;5.864;2023-02-28T10:28:21;102512.56;;;1.27;47.92
48204;BME280;33994;50.998;5.864;2023-02-28T10:31:24;102511.06;;;1.32;46.75
48204;BME280;33994;50.998;5.864;2023-02-28T10:34:29;102505.91;;;1.32;45.89
48204;BME280;33994;50.998;5.864;2023-02-28T10:37:32;102500.75;;;1.32;45.27
48204;BME280;33994;50.998;5.864;2023-02-28T10:40:36;102501.91;;;1.37;45.55
48204;BME280;33994;50.998;5.864;2023-02-28T10:43:40;102506.47;;;1.42;44.83
48204;BME280;33994;50.998;5.864;2023-02-28T10:46:45;102504.03;;;1.46;44.18
48204;BME280;33994;50.998;5.864;2023-02-28T10:49:50;102494.44;;;1.43;44.78
48204;BME280;33994;50.998;5.864;2023-02-28T10:52:54;102485.75;;;1.41;44.06
48204;BME280;33994;50.998;5.864;2023-02-28T10:55:59;102497.84;;;1.42;44.32
48204;BME280;33994;50.998;5.864;2023-02-28T10:59:23;102489.88;;;1.37;43.54
48204;BME280;33994;50.998;5.864;2023-02-28T11:02:32;102491.44;;;1.34;43.70
48204;BME280;33994;50.998;5.864;2023-02-28T11:05:36;102493.13;;;1.33;43.67
48204;BME280;33994;50.998;5.864;2023-02-28T11:08:45;102486.28;;;1.34;43.90
48204;BME280;33994;50.998;5.864;2023-02-28T11:11:49;102486.44;;;1.37;44.57
48204;BME280;33994;50.998;5.864;2023-02-28T11:14:54;102481.41;;;1.40;44.39
48204;BME280;33994;50.998;5.864;2023-02-28T11:18:00;102476.41;;;1.43;44.51
48204;BME280;33994;50.998;5.864;2023-02-28T11:21:06;102474.69;;;1.43;43.90
48204;BME280;33994;50.998;5.864;2023-02-28T11:24:18;102486.03;;;1.47;43.63
48204;BME280;33994;50.998;5.864;2023-02-28T11:27:43;102477.44;;;1.47;43.87
48204;BME280;33994;50.998;5.864;2023-02-28T11:31:00;102474.13;;;1.49;43.46
48204;BME280;33994;50.998;5.864;2023-02-28T11:34:23;102475.06;;;1.51;44.29
48204;BME280;33994;50.998;5.864;2023-02-28T11:37:29;102476.09;;;1.55;44.67
48204;BME280;33994;50.998;5.864;2023-02-28T11:40:41;102467.78;;;1.60;44.81
48204;BME280;33994;50.998;5.864;2023-02-28T11:44:18;102462.84;;;1.65;45.33
48204;BME280;33994;50.998;5.864;2023-02-28T11:47:33;102474.41;;;1.73;44.02
48204;BME280;33994;50.998;5.864;2023-02-28T11:50:47;102465.78;;;1.73;43.46
48204;BME280;33994;50.998;5.864;2023-02-28T12:01:54;102466.72;;;1.75;43.71
48204;BME280;33994;50.998;5.864;2023-02-28T12:05:19;102458.19;;;1.76;44.25
48204;BME280;33994;50.998;5.864;2023-02-28T12:08:42;102457.53;;;1.80;44.90
48204;BME280;33994;50.998;5.864;2023-02-28T12:11:51;102460.38;;;1.86;44.70
48204;BME280;33994;50.998;5.864;2023-02-28T12:18:52;102454.47;;;1.88;43.98
48204;BME280;33994;50.998;5.864;2023-02-28T12:22:25;102456.41;;;1.92;44.76
48204;BME280;33994;50.998;5.864;2023-02-28T12:25:39;102454.69;;;1.93;44.06
48204;BME280;33994;50.998;5.864;2023-02-28T12:28:48;102450.50;;;1.95;44.40
48204;BME280;33994;50.998;5.864;2023-02-28T12:31:56;102448.84;;;1.97;44.47
48204;BME280;33994;50.998;5.864;2023-02-28T12:35:10;102447.53;;;2.05;44.83
48204;BME280;33994;50.998;5.864;2023-02-28T12:38:18;102448.53;;;2.09;44.45
48204;BME280;33994;50.998;5.864;2023-02-28T12:41:40;102434.06;;;2.12;44.71
48204;BME280;33994;50.998;5.864;2023-02-28T12:44:46;102430.75;;;2.15;43.88
48204;BME280;33994;50.998;5.864;2023-02-28T12:47:55;102423.75;;;2.12;44.15
48204;BME280;33994;50.998;5.864;2023-02-28T12:51:01;102427.28;;;2.14;44.64
48204;BME280;33994;50.998;5.864;2023-02-28T12:54:12;102425.06;;;2.22;47.95
48204;BME280;33994;50.998;5.864;2023-02-28T12:57:25;102423.53;;;2.27;44.91
48204;BME280;33994;50.998;5.864;2023-02-28T13:00:35;102428.56;;;2.24;45.26
48204;BME280;33994;50.998;5.864;2023-02-28T13:03:49;102417.50;;;2.27;45.09
48204;BME280;33994;50.998;5.864;2023-02-28T13:07:10;102401.41;;;2.32;45.23
48204;BME280;33994;50.998;5.864;2023-02-28T13:10:17;102404.19;;;2.37;45.13
48204;BME280;33994;50.998;5.864;2023-02-28T13:13:22;102394.69;;;2.36;44.78
48204;BME280;33994;50.998;5.864;2023-02-28T13:16:26;102404.06;;;2.34;44.70
48204;BME280;33994;50.998;5.864;2023-02-28T13:19:32;102401.41;;;2.32;44.25
48204;BME280;33994;50.998;5.864;2023-02-28T13:22:39;102393.72;;;2.34;44.57
48204;BME280;33994;50.998;5.864;2023-02-28T13:25:52;102390.31;;;2.35;44.43
48204;BME280;33994;50.998;5.864;2023-02-28T13:29:00;102392.84;;;2.33;44.30
48204;BME280;33994;50.998;5.864;2023-02-28T13:35:44;102396.38;;;2.35;45.46
48204;BME280;33994;50.998;5.864;2023-02-28T13:38:49;102392.22;;;2.39;45.53
48204;BME280;33994;50.998;5.864;2023-02-28T13:41:53;102391.34;;;2.38;45.78
48204;BME280;33994;50.998;5.864;2023-02-28T13:45:22;102389.44;;;2.34;46.22
48204;BME280;33994;50.998;5.864;2023-02-28T13:48:27;102380.13;;;2.38;46.43
48204;BME280;33994;50.998;5.864;2023-02-28T13:51:40;102386.31;;;2.41;47.63
48204;BME280;33994;50.998;5.864;2023-02-28T13:54:56;102383.72;;;2.41;47.17
48204;BME280;33994;50.998;5.864;2023-02-28T13:58:10;102383.78;;;2.43;47.78
48204;BME280;33994;50.998;5.864;2023-02-28T14:05:02;102374.56;;;2.48;46.99
48204;BME280;33994;50.998;5.864;2023-02-28T14:08:13;102364.28;;;2.50;47.04
48204;BME280;33994;50.998;5.864;2023-02-28T14:11:28;102363.53;;;2.52;46.15
48204;BME280;33994;50.998;5.864;2023-02-28T14:14:53;102362.84;;;2.56;46.12
48204;BME280;33994;50.998;5.864;2023-02-28T14:17:57;102362.09;;;2.59;46.21
48204;BME280;33994;50.998;5.864;2023-02-28T14:21:13;102348.41;;;2.61;45.70
48204;BME280;33994;50.998;5.864;2023-02-28T14:24:41;102358.94;;;2.66;45.67
48204;BME280;33994;50.998;5.864;2023-02-28T14:27:58;102362.44;;;2.66;45.67
48204;BME280;33994;50.998;5.864;2023-02-28T14:31:09;102359.72;;;2.63;45.77
48204;BME280;33994;50.998;5.864;2023-02-28T14:34:25;102364.19;;;2.67;46.09
48204;BME280;33994;50.998;5.864;2023-02-28T14:37:30;102351.19;;;2.66;45.93
48204;BME280;33994;50.998;5.864;2023-02-28T14:40:38;102349.44;;;2.65;45.94
48204;BME280;33994;50.998;5.864;2023-02-28T14:43:51;102353.84;;;2.67;46.11
48204;BME280;33994;50.998;5.864;2023-02-28T14:46:56;102350.44;;;2.69;46.39
48204;BME280;33994;50.998;5.864;2023-02-28T14:50:00;102348.69;;;2.67;46.56
48204;BME280;33994;50.998;5.864;2023-02-28T14:53:09;102355.66;;;2.70;46.55
48204;BME280;33994;50.998;5.864;2023-02-28T14:56:21;102359.94;;;2.70;46.36
48204;BME280;33994;50.998;5.864;2023-02-28T14:59:30;102347.81;;;2.67;46.08
48204;BME280;33994;50.998;5.864;2023-02-28T15:02:35;102347.03;;;2.70;46.56
48204;BME280;33994;50.998;5.864;2023-02-28T15:05:38;102349.69;;;2.71;46.59
48204;BME280;33994;50.998;5.864;2023-02-28T15:08:42;102340.25;;;2.72;46.57
48204;BME280;33994;50.998;5.864;2023-02-28T15:11:47;102351.41;;;2.71;46.80
48204;BME280;33994;50.998;5.864;2023-02-28T15:14:53;102338.59;;;2.74;47.15
48204;BME280;33994;50.998;5.864;2023-02-28T15:17:57;102352.47;;;2.76;47.27
48204;BME280;33994;50.998;5.864;2023-02-28T15:21:03;102348.91;;;2.74;47.15
48204;BME280;33994;50.998;5.864;2023-02-28T15:24:12;102337.69;;;2.73;47.16
48204;BME280;33994;50.998;5.864;2023-02-28T15:27:21;102341.94;;;2.71;47.21
48204;BME280;33994;50.998;5.864;2023-02-28T15:30:28;102342.00;;;2.73;47.24
48204;BME280;33994;50.998;5.864;2023-02-28T15:33:33;102332.53;;;2.73;47.84
48204;BME280;33994;50.998;5.864;2023-02-28T15:36:36;102336.91;;;2.74;47.45
48204;BME280;33994;50.998;5.864;2023-02-28T15:39:42;102342.13;;;2.76;47.50
48204;BME280;33994;50.998;5.864;2023-02-28T15:43:03;102339.53;;;2.76;47.24
48204;BME280;33994;50.998;5.864;2023-02-28T15:46:09;102346.47;;;2.77;47.47
48204;BME280;33994;50.998;5.864;2023-02-28T15:49:18;102342.25;;;2.79;47.75
48204;BME280;33994;50.998;5.864;2023-02-28T15:52:27;102337.13;;;2.80;47.48
48204;BME280;33994;50.998;5.864;2023-02-28T15:55:31;102344.06;;;2.81;47.56
48204;BME280;33994;50.998;5.864;2023-02-28T15:58:35;102344.00;;;2.80;47.79
48204;BME280;33994;50.998;5.864;2023-02-28T16:01:40;102344.97;;;2.82;48.01
48204;BME280;33994;50.998;5.864;2023-02-28T16:04:56;102341.47;;;2.81;47.76
48204;BME280;33994;50.998;5.864;2023-02-28T16:08:01;102345.03;;;2.83;47.67
48204;BME280;33994;50.998;5.864;2023-02-28T16:11:04;102348.44;;;2.82;47.94
48204;BME280;33994;50.998;5.864;2023-02-28T16:14:13;102351.03;;;2.82;47.94
48204;BME280;33994;50.998;5.864;2023-02-28T16:17:20;102351.81;;;2.81;48.21
48204;BME280;33994;50.998;5.864;2023-02-28T16:20:26;102350.06;;;2.80;48.64
48204;BME280;33994;50.998;5.864;2023-02-28T16:23:29;102350.94;;;2.81;48.95
48204;BME280;33994;50.998;5.864;2023-02-28T16:26:32;102356.09;;;2.81;48.79
48204;BME280;33994;50.998;5.864;2023-02-28T16:29:36;102353.47;;;2.79;49.32
48204;BME280;33994;50.998;5.864;2023-02-28T16:32:41;102356.00;;;2.78;49.18
48204;BME280;33994;50.998;5.864;2023-02-28T16:35:44;102348.16;;;2.76;49.10
48204;BME280;33994;50.998;5.864;2023-02-28T16:38:47;102349.03;;;2.77;49.39
48204;BME280;33994;50.998;5.864;2023-02-28T16:41:51;102351.63;;;2.77;49.48
48204;BME280;33994;50.998;5.864;2023-02-28T16:44:55;102350.75;;;2.76;49.72
48204;BME280;33994;50.998;5.864;2023-02-28T16:47:59;102353.28;;;2.75;50.06